Beacon Falls, CT

2:53 AM EDT on May 28, 2015 (GMT -0400)
Waterbury-Oxford | | Change Station
CLOSE
Current Station
Airport
Location: Oxford,
Elevation: 725 ft
Nearby Weather Stations

Elev 725 ft 41.47 °N, 73.14 °W | Updated 18 minutes ago

Overcast
Overcast
64 °F
Feels Like 64 °F
N
7
Wind Variable Wind from South

Today
High -- | Low -- °F
--% Chance of Precip.
Yesterday
High -- | Low -- °F
Precip. -- in
5:23 AM 8:16 PM
Waxing Gibbous, 73% visible
Pressure 30.17 in
Visibility 2.5 miles
Clouds Overcast 200 ft
Dew Point 59 °F
Humidity 83%
Rainfall 0.00 in
Snow Depth Not available.
UV 0 out of 12
Pollen 8.00 out of 12
Air Quality Not available.
Flu Activity Regional
METAR KOXC 280635Z 19006KT 2 1/2SM OVC002 18/15 A3017 RMK AO1

More Conditions Fewer Conditions

Pressure 30.17 in
Visibility 2.5 miles
Clouds Overcast 200 ft
Dew Point 59 °F
Humidity 83%
Rainfall 0.00 in
Snow Depth Not available.
UV 0 out of 12
Pollen 8.00 out of 12
Air Quality Not available.
Flu Activity Regional
METAR KOXC 280635Z 19006KT 2 1/2SM OVC002 18/15 A3017 RMK AO1

More Conditions Fewer Conditions

10-Day Weather Forecast

Almanac

Astronomy

May. 28, 2015 Rise Set
Actual Time
Civil Twilight
Nautical Twilight
Astronomical Twilight
Moon
Length of Visible Light
Length of Day
Tomorrow will be .
, % of the Moon is Illuminated

Today's Extremes

State Highs State Lows

Community

WunderPhotos

Upload Photos

1,824,931 photos uploaded!

WunderBlogs® & News

Nearby

Air Quality

  Air Quality AQ Index Pollutant
Not available.

Snow Depth

Station Depth Elevation

Earthquake Activity

City Distance Mag. Time & Date
Minimum magnitude displayed is 2.5.

Coastal Water Temperatures

Place Temperature

Stations

Nearby Weather Stations

Station Location Temp. Windchill Dew Point Humidity Wind Precip. Elev Updated Type